Time;durP1;ratioP1;P1;durP2;ratioP2;P2;SDS_P1;SDS_P2;PMS_P1;PMS_P2;Temp;Humidity;BMP_temperature;BMP_pressure;BME280_temperature;BME280_humidity;BME280_pressure;Samples;Min_cycle;Max_cycle;Signal;HPM_P1;HPM_P2
2023/11/21 00:02:05;;;;;;;2.15;1.00;;;;;;;6.35;100.00;97942.75;15272443;19;21022;-53
2023/11/21 00:07:32;;;;;;;3.38;1.13;;;;;;;6.34;100.00;97942.91;15274142;19;20015;-51
2023/11/21 00:12:57;;;;;;;2.42;1.00;;;;;;;6.34;100.00;97941.06;15275394;19;20418;-51
2023/11/21 00:18:22;;;;;;;2.20;1.00;;;;;;;6.38;100.00;97942.47;15278067;19;20021;-50
2023/11/21 00:23:49;;;;;;;1.85;0.77;;;;;;;6.42;100.00;97951.88;15272015;19;20578;-52
2023/11/21 00:29:17;;;;;;;2.25;0.90;;;;;;;6.44;100.00;97959.78;15275703;19;20535;-54
2023/11/21 00:34:42;;;;;;;1.05;0.90;;;;;;;6.43;100.00;97956.25;15269044;19;20011;-54
2023/11/21 00:40:09;;;;;;;2.15;0.90;;;;;;;6.40;100.00;97953.03;15275071;19;20116;-52
2023/11/21 00:45:35;;;;;;;1.60;0.98;;;;;;;6.38;100.00;97953.19;15273939;19;20025;-50
2023/11/21 00:51:00;;;;;;;1.67;0.93;;;;;;;6.38;100.00;97952.31;15273375;19;20018;-53
2023/11/21 00:56:27;;;;;;;1.90;0.90;;;;;;;6.40;100.00;97953.03;15273355;19;20006;-50
2023/11/21 01:01:54;;;;;;;3.25;1.20;;;;;;;6.44;100.00;97962.44;15272651;19;20010;-51
2023/11/21 01:07:20;;;;;;;2.30;1.00;;;;;;;6.47;100.00;97959.47;15264764;19;20463;-51
2023/11/21 01:12:48;;;;;;;2.88;1.05;;;;;;;6.54;100.00;97978.44;15270416;19;20077;-53
2023/11/21 01:18:14;;;;;;;1.58;0.90;;;;;;;6.59;100.00;97976.19;15271429;19;20031;-52
2023/11/21 01:23:38;;;;;;;1.98;0.90;;;;;;;6.61;100.00;97976.88;15271020;19;20036;-51
2023/11/21 01:29:06;;;;;;;2.92;1.10;;;;;;;6.62;100.00;97983.94;15272906;19;20580;-53
2023/11/21 01:34:30;;;;;;;2.20;1.00;;;;;;;6.62;100.00;97986.59;15266362;19;20035;-53
2023/11/21 01:39:56;;;;;;;1.13;0.88;;;;;;;6.65;100.00;97980.13;15266339;19;20010;-53
2023/11/21 01:45:24;;;;;;;1.98;1.00;;;;;;;6.66;100.00;97987.16;15268028;19;20034;-51
2023/11/21 01:50:50;;;;;;;2.85;1.05;;;;;;;6.67;100.00;98000.38;15270545;19;20489;-54
2023/11/21 01:56:22;;;;;;;3.03;1.10;;;;;;;6.68;100.00;97998.56;15011480;19;5000933;-50
2023/11/21 02:01:50;;;;;;;3.38;1.20;;;;;;;6.68;100.00;98007.41;15265605;19;20118;-53
2023/11/21 02:07:15;;;;;;;3.75;0.90;;;;;;;6.68;100.00;97999.38;15267870;19;20538;-54
2023/11/21 02:12:40;;;;;;;2.22;1.20;;;;;;;6.69;100.00;98009.13;15262908;19;20014;-51
2023/11/21 02:18:09;;;;;;;2.33;1.00;;;;;;;6.67;100.00;98005.72;15270525;19;20015;-52
2023/11/21 02:23:42;;;;;;;3.78;1.13;;;;;;;6.67;100.00;97999.56;15266331;19;20023;-51
2023/11/21 02:29:10;;;;;;;1.75;0.98;;;;;;;6.66;100.00;98014.75;15266455;19;20489;-51
2023/11/21 02:34:36;;;;;;;2.92;1.10;;;;;;;6.68;100.00;98009.28;15280233;19;20085;-52
2023/11/21 02:40:03;;;;;;;2.38;1.00;;;;;;;6.68;100.00;98012.78;15265829;19;20086;-57
2023/11/21 02:45:29;;;;;;;1.67;1.00;;;;;;;6.70;100.00;98016.16;15274814;19;20039;-56
2023/11/21 02:50:53;;;;;;;5.72;1.20;;;;;;;6.70;100.00;98010.81;14766560;19;10000517;-53
2023/11/21 02:56:20;;;;;;;2.35;1.10;;;;;;;6.71;100.00;98003.59;15278738;19;20086;-54
2023/11/21 03:01:49;;;;;;;2.80;1.13;;;;;;;6.70;100.00;98002.78;15279024;19;20047;-54
2023/11/21 03:07:14;;;;;;;2.67;1.10;;;;;;;6.72;100.00;97995.44;15282612;19;20479;-55
2023/11/21 03:12:41;;;;;;;1.25;0.90;;;;;;;6.75;100.00;98002.31;15280664;19;20018;-56
2023/11/21 03:18:09;;;;;;;3.35;1.20;;;;;;;6.78;100.00;98007.41;15276175;19;20022;-56
2023/11/21 03:23:33;;;;;;;2.38;1.33;;;;;;;6.78;100.00;98013.56;15279459;19;20017;-56
2023/11/21 03:29:00;;;;;;;4.18;1.13;;;;;;;6.76;100.00;98014.72;15278393;19;20435;-56
2023/11/21 03:34:31;;;;;;;2.58;1.10;;;;;;;6.77;100.00;98019.91;15279917;19;20375;-55
2023/11/21 03:40:04;;;;;;;2.30;1.10;;;;;;;6.77;100.00;98030.63;15273544;19;20033;-54
2023/11/21 03:45:31;;;;;;;1.98;1.10;;;;;;;6.76;100.00;98025.44;15279644;19;20507;-55
2023/11/21 03:50:56;;;;;;;3.42;1.23;;;;;;;6.71;100.00;98017.84;15268719;19;20391;-54
2023/11/21 03:56:21;;;;;;;3.40;1.27;;;;;;;6.58;100.00;98020.00;15268664;19;20645;-53
2023/11/21 04:01:48;;;;;;;1.85;1.27;;;;;;;6.39;100.00;98032.47;15275461;19;20077;-57
2023/11/21 04:07:13;;;;;;;4.10;1.30;;;;;;;6.34;100.00;98032.03;15278430;19;20019;-57
2023/11/21 04:12:37;;;;;;;5.38;1.40;;;;;;;6.37;100.00;98030.91;15277178;19;20025;-57
2023/11/21 04:18:05;;;;;;;4.35;1.50;;;;;;;6.42;100.00;98028.66;15276874;19;20023;-55
2023/11/21 04:23:29;;;;;;;2.55;1.20;;;;;;;6.33;100.00;98033.03;15276856;19;20014;-57
2023/11/21 04:28:54;;;;;;;4.60;1.70;;;;;;;6.22;100.00;98038.53;15274467;19;20019;-59
2023/11/21 04:34:21;;;;;;;4.38;1.75;;;;;;;6.11;100.00;98035.03;15275755;19;20602;-55
2023/11/21 04:39:52;;;;;;;4.40;1.85;;;;;;;6.04;100.00;98044.63;15270804;19;20021;-57
2023/11/21 04:45:17;;;;;;;3.53;1.90;;;;;;;5.87;100.00;98040.78;15269511;19;20024;-56
2023/11/21 04:50:44;;;;;;;4.35;2.40;;;;;;;5.79;100.00;98054.00;15261548;19;20283;-57
2023/11/21 04:56:10;;;;;;;3.95;2.53;;;;;;;5.76;100.00;98060.47;15261346;19;20099;-57
2023/11/21 05:01:36;;;;;;;7.70;2.83;;;;;;;5.75;100.00;98063.31;15264077;19;20018;-57
2023/11/21 05:07:03;;;;;;;7.15;2.97;;;;;;;5.73;100.00;98066.09;15264848;19;20563;-57
2023/11/21 05:12:28;;;;;;;7.20;2.90;;;;;;;5.71;100.00;98074.25;15263628;19;20024;-57
2023/11/21 05:17:53;;;;;;;6.80;3.10;;;;;;;5.69;100.00;98078.06;15265191;19;20010;-56
2023/11/21 05:23:21;;;;;;;6.85;3.10;;;;;;;5.66;100.00;98092.53;15259611;19;20014;-58
2023/11/21 05:28:46;;;;;;;3.53;2.00;;;;;;;5.50;100.00;98095.75;15262493;19;20017;-58
2023/11/21 05:34:10;;;;;;;5.10;2.42;;;;;;;5.40;100.00;98095.72;15262572;19;20019;-58
2023/11/21 05:39:45;;;;;;;5.72;2.60;;;;;;;5.31;100.00;98085.84;15259364;19;20018;-58
2023/11/21 05:45:13;;;;;;;6.28;3.00;;;;;;;5.28;100.00;98095.97;15263962;19;20035;-57
2023/11/21 05:50:38;;;;;;;7.50;3.90;;;;;;;5.21;100.00;98103.66;15258377;19;20017;-57
2023/11/21 05:56:07;;;;;;;7.20;4.88;;;;;;;5.15;100.00;98102.38;15255772;19;20025;-58
2023/11/21 06:01:31;;;;;;;5.82;4.10;;;;;;;5.13;100.00;98111.50;15260043;19;20392;-58
2023/11/21 06:06:56;;;;;;;60.20;5.53;;;;;;;5.07;100.00;98107.56;15262560;19;20032;-58
2023/11/21 06:12:23;;;;;;;363.85;12.80;;;;;;;5.00;100.00;98128.59;15262047;19;20489;-58
2023/11/21 06:17:51;;;;;;;10.43;6.40;;;;;;;4.97;100.00;98126.19;15261041;19;20007;-58
2023/11/21 06:23:16;;;;;;;10.85;6.57;;;;;;;4.96;100.00;98137.84;15308762;19;20028;-58
2023/11/21 06:28:44;;;;;;;79.60;8.50;;;;;;;4.91;100.00;98142.75;15282469;19;20035;-49
2023/11/21 06:34:11;;;;;;;49.05;7.63;;;;;;;4.84;100.00;98149.56;15289413;19;20014;-50
2023/11/21 06:39:44;;;;;;;14.02;6.88;;;;;;;4.84;100.00;98155.78;15290176;19;20014;-53
2023/11/21 06:45:12;;;;;;;13.25;6.70;;;;;;;4.86;100.00;98174.31;15274596;19;20037;-55
2023/11/21 06:50:37;;;;;;;19.35;6.97;;;;;;;4.91;100.00;98182.78;15262838;19;20022;-54
2023/11/21 06:56:02;;;;;;;10.70;6.18;;;;;;;4.92;100.00;98212.00;15265993;19;20019;-53
2023/11/21 07:01:29;;;;;;;36.08;7.30;;;;;;;4.90;100.00;98203.28;15257035;19;20011;-54
2023/11/21 07:06:56;;;;;;;9.45;6.20;;;;;;;4.88;100.00;98201.72;15267659;19;20018;-50
2023/11/21 07:12:23;;;;;;;10.88;5.75;;;;;;;4.91;100.00;98213.00;15263176;19;20026;-54
2023/11/21 07:17:51;;;;;;;31.95;5.10;;;;;;;4.93;100.00;98219.03;15266161;19;20018;-54
2023/11/21 07:23:16;;;;;;;6.40;4.43;;;;;;;4.96;100.00;98222.44;15278857;19;20022;-51
2023/11/21 07:28:42;;;;;;;5.43;4.10;;;;;;;5.00;100.00;98234.56;15275931;19;20046;-52
2023/11/21 07:34:12;;;;;;;6.72;4.80;;;;;;;5.03;100.00;98234.28;15268284;19;20022;-53
2023/11/21 07:39:44;;;;;;;10.18;4.90;;;;;;;5.05;100.00;98243.88;15273580;19;20014;-52
2023/11/21 07:45:03;;;;;;;6.20;5.00;;;;;;;5.10;100.00;98246.16;15278420;19;20101;-54
2023/11/21 07:50:32;;;;;;;9.80;5.47;;;;;;;5.16;100.00;98255.47;15273446;19;20033;-54
2023/11/21 07:55:57;;;;;;;13.90;7.03;;;;;;;5.20;100.00;98271.09;15275229;19;20025;-53
2023/11/21 08:01:22;;;;;;;13.55;6.60;;;;;;;5.24;100.00;98269.81;15269284;19;20389;-54
2023/11/21 08:06:51;;;;;;;12.57;6.95;;;;;;;5.24;100.00;98275.16;15270572;19;20090;-55
2023/11/21 08:12:17;;;;;;;13.13;7.95;;;;;;;5.28;100.00;98286.47;15275881;19;20014;-52
2023/11/21 08:17:42;;;;;;;14.90;8.27;;;;;;;5.33;100.00;98291.41;15269604;19;20026;-52
2023/11/21 08:23:10;;;;;;;18.05;9.40;;;;;;;5.39;100.00;98296.22;15273685;19;20054;-53
2023/11/21 08:28:35;;;;;;;23.15;9.32;;;;;;;5.45;100.00;98303.72;15272544;19;20039;-51
2023/11/21 08:34:02;;;;;;;21.10;9.90;;;;;;;5.51;100.00;98300.50;15273534;19;20020;-54
2023/11/21 08:39:30;;;;;;;21.05;10.00;;;;;;;5.57;100.00;98301.81;15266843;19;20015;-54
2023/11/21 08:44:57;;;;;;;25.05;10.38;;;;;;;5.62;100.00;98306.75;15275594;19;20018;-52
2023/11/21 08:50:22;;;;;;;23.35;11.73;;;;;;;5.65;100.00;98314.50;15269505;19;20023;-53
2023/11/21 08:55:51;;;;;;;25.75;12.40;;;;;;;5.69;100.00;98321.28;15271211;19;20498;-52
2023/11/21 09:01:15;;;;;;;55.45;13.60;;;;;;;5.72;100.00;98329.03;14757153;19;10000654;-53
2023/11/21 09:06:40;;;;;;;30.50;12.95;;;;;;;5.73;100.00;98335.22;15272114;19;20025;-52
2023/11/21 09:12:07;;;;;;;32.30;13.25;;;;;;;5.76;100.00;98326.94;15267718;19;20356;-53
2023/11/21 09:17:32;;;;;;;41.40;13.80;;;;;;;5.82;100.00;98343.28;15271493;19;20022;-50
2023/11/21 09:22:56;;;;;;;27.20;13.20;;;;;;;5.85;100.00;98351.03;15270829;19;20018;-53
2023/11/21 09:28:24;;;;;;;30.38;12.93;;;;;;;5.89;100.00;98354.28;15270838;19;20027;-52
2023/11/21 09:33:48;;;;;;;23.35;12.70;;;;;;;5.90;100.00;98353.31;15269278;19;20018;-55
2023/11/21 09:39:14;;;;;;;29.25;12.70;;;;;;;5.95;100.00;98358.25;15267085;19;20018;-52
2023/11/21 09:44:46;;;;;;;23.20;12.18;;;;;;;5.98;100.00;98364.22;15258919;19;20014;-51
2023/11/21 09:50:21;;;;;;;15.68;11.05;;;;;;;5.99;100.00;98365.03;15266101;19;20006;-55
2023/11/21 09:55:47;;;;;;;16.52;11.38;;;;;;;5.98;100.00;98369.56;15268353;19;20024;-52
2023/11/21 10:01:18;;;;;;;18.83;11.80;;;;;;;6.02;100.00;98372.84;15265260;19;20386;-53
2023/11/21 10:06:45;;;;;;;24.35;12.48;;;;;;;6.08;100.00;98384.81;15268640;19;20019;-52
2023/11/21 10:12:12;;;;;;;21.98;12.57;;;;;;;6.13;100.00;98382.59;15268007;19;20025;-52
2023/11/21 10:17:45;;;;;;;23.48;12.88;;;;;;;6.17;100.00;98392.03;15260100;19;20464;-56
2023/11/21 10:23:11;;;;;;;27.67;13.88;;;;;;;6.17;100.00;98389.38;15268381;19;20442;-53
2023/11/21 10:28:39;;;;;;;25.13;13.75;;;;;;;6.17;100.00;98392.03;15266129;19;20014;-52
2023/11/21 10:34:21;;;;;;;29.13;13.85;;;;;;;6.20;100.00;98394.47;15268849;19;20017;-53
2023/11/21 10:39:46;;;;;;;27.13;14.13;;;;;;;6.23;100.00;98406.72;15266711;19;20019;-52
2023/11/21 10:45:13;;;;;;;30.40;14.90;;;;;;;6.27;100.00;98406.31;15269536;19;20015;-54
2023/11/21 10:50:42;;;;;;;25.40;14.40;;;;;;;6.35;100.00;98410.16;15261090;19;20031;-52
2023/11/21 10:56:11;;;;;;;30.70;15.02;;;;;;;6.42;100.00;98413.97;15275336;19;20014;-51
2023/11/21 11:01:39;;;;;;;30.92;15.45;;;;;;;6.44;100.00;98412.84;15272274;19;20010;-50
2023/11/21 11:07:12;;;;;;;30.65;15.65;;;;;;;6.50;100.00;98411.47;15280783;19;20014;-51
2023/11/21 11:12:37;;;;;;;37.38;16.77;;;;;;;6.57;100.00;98417.13;15284167;19;20035;-50
2023/11/21 11:18:06;;;;;;;41.25;16.05;;;;;;;6.64;100.00;98423.66;15280343;19;20027;-50
2023/11/21 11:23:47;;;;;;;32.15;15.27;;;;;;;6.66;100.00;98434.22;15283397;19;20023;-53
2023/11/21 11:29:22;;;;;;;36.57;16.40;;;;;;;6.67;100.00;98436.72;15279600;19;20014;-55
2023/11/21 11:34:54;;;;;;;41.42;15.57;;;;;;;6.62;100.00;98442.50;15279794;19;20019;-53
2023/11/21 11:40:29;;;;;;;35.30;15.70;;;;;;;6.63;100.00;98441.53;15276955;19;20647;-52
2023/11/21 11:45:54;;;;;;;27.38;13.10;;;;;;;6.65;100.00;98452.09;15282281;19;20010;-50
2023/11/21 11:51:21;;;;;;;16.48;10.43;;;;;;;6.64;100.00;98450.41;15266101;19;20046;-51
2023/11/21 11:56:50;;;;;;;16.73;10.15;;;;;;;6.60;100.00;98448.97;15274948;19;20081;-53
2023/11/21 12:02:10;;;;;;;15.65;8.70;;;;;;;6.61;100.00;98456.88;15273444;19;20019;-55
2023/11/21 12:07:50;;;;;;;9.43;6.10;;;;;;;6.59;100.00;98461.50;15273363;19;20013;-53
2023/11/21 12:13:19;;;;;;;8.40;5.55;;;;;;;6.59;100.00;98468.69;15276759;19;20092;-53
2023/11/21 12:18:43;;;;;;;4.10;3.10;;;;;;;6.55;100.00;98477.97;15269677;19;20018;-51
2023/11/21 12:24:13;;;;;;;1.90;1.80;;;;;;;6.32;100.00;98470.97;15269861;19;20010;-52
2023/11/21 12:29:40;;;;;;;2.83;2.50;;;;;;;6.16;100.00;98479.50;15272765;19;20077;-55
2023/11/21 12:35:06;;;;;;;5.32;2.75;;;;;;;5.97;100.00;98479.31;15273898;19;20025;-53
2023/11/21 12:40:30;;;;;;;4.72;3.25;;;;;;;5.81;100.00;98491.31;15270022;19;20046;-52
2023/11/21 12:46:09;;;;;;;4.90;3.55;;;;;;;5.62;100.00;98491.16;15271474;19;20573;-53
2023/11/21 12:51:34;;;;;;;9.10;5.53;;;;;;;5.40;100.00;98487.59;15270135;19;20018;-51
2023/11/21 12:57:05;;;;;;;10.15;6.57;;;;;;;5.29;100.00;98490.31;15265020;19;20014;-52
2023/11/21 13:02:37;;;;;;;10.40;6.83;;;;;;;5.22;100.00;98506.84;15265884;19;20014;-54
2023/11/21 13:08:07;;;;;;;12.45;7.20;;;;;;;5.19;100.00;98499.09;15266926;19;20286;-51
2023/11/21 13:13:32;;;;;;;16.67;8.98;;;;;;;5.13;100.00;98506.75;15267825;19;20094;-52
2023/11/21 13:19:00;;;;;;;15.30;9.73;;;;;;;5.11;100.00;98519.38;15268270;19;20044;-51
2023/11/21 13:24:26;;;;;;;11.13;8.40;;;;;;;5.01;100.00;98512.09;15271339;19;20014;-52
2023/11/21 13:29:51;;;;;;;12.38;8.93;;;;;;;4.87;100.00;98517.69;15265318;19;20029;-54
2023/11/21 13:35:30;;;;;;;11.35;9.20;;;;;;;4.80;100.00;98520.00;15267994;19;20355;-52
2023/11/21 13:41:06;;;;;;;12.32;10.20;;;;;;;4.74;100.00;98525.84;15266121;19;20085;-50
2023/11/21 13:46:36;;;;;;;16.05;11.48;;;;;;;4.66;100.00;98530.91;15271780;19;20015;-52
2023/11/21 13:52:04;;;;;;;14.10;10.98;;;;;;;4.65;100.00;98539.88;15269669;19;20014;-50
2023/11/21 13:57:29;;;;;;;15.43;10.60;;;;;;;4.64;100.00;98549.72;15269511;19;20432;-50
2023/11/21 14:02:53;;;;;;;14.50;9.60;;;;;;;4.62;100.00;98557.88;15262291;19;20007;-52
2023/11/21 14:08:28;;;;;;;9.40;7.38;;;;;;;4.58;100.00;98566.22;15268258;19;20021;-53
2023/11/21 14:13:53;;;;;;;8.70;6.75;;;;;;;4.50;100.00;98569.50;15266458;19;20371;-50
2023/11/21 14:19:18;;;;;;;11.35;7.60;;;;;;;4.46;100.00;98582.22;15263890;19;20022;-50
2023/11/21 14:24:46;;;;;;;14.40;9.32;;;;;;;4.47;100.00;98583.91;15268130;19;20014;-51
2023/11/21 14:30:13;;;;;;;14.98;9.07;;;;;;;4.41;100.00;98583.56;15279118;19;20023;-52
2023/11/21 14:35:37;;;;;;;20.52;13.27;;;;;;;4.32;100.00;98593.94;15276439;19;20094;-51
2023/11/21 14:41:13;;;;;;;32.15;15.98;;;;;;;4.25;100.00;98600.72;15274501;19;20024;-54
2023/11/21 14:46:39;;;;;;;54.25;19.48;;;;;;;4.13;100.00;98609.66;15285243;19;20007;-55
2023/11/21 14:52:07;;;;;;;45.35;22.33;;;;;;;4.06;100.00;98613.75;15282225;19;20010;-53
2023/11/21 14:57:35;;;;;;;29.23;17.70;;;;;;;3.96;100.00;98625.06;15278509;19;20074;-51
2023/11/21 15:03:01;;;;;;;29.70;18.10;;;;;;;3.83;100.00;98640.28;15280408;19;20018;-53
2023/11/21 15:08:31;;;;;;;23.85;15.52;;;;;;;3.76;100.00;98660.34;15274536;19;20054;-52
2023/11/21 15:13:59;;;;;;;21.83;14.45;;;;;;;3.70;100.00;98661.66;15278502;19;20371;-52
2023/11/21 15:19:26;;;;;;;13.55;9.10;;;;;;;3.60;100.00;98677.44;15275531;19;20351;-51
2023/11/21 15:24:53;;;;;;;6.43;4.82;;;;;;;3.39;100.00;98683.38;15280260;19;20014;-49
2023/11/21 15:30:24;;;;;;;8.75;7.15;;;;;;;3.26;100.00;98681.69;15268902;19;20014;-51
2023/11/21 15:35:48;;;;;;;18.30;14.20;;;;;;;3.29;100.00;98690.31;15282117;19;20014;-53
2023/11/21 15:41:13;;;;;;;22.33;15.73;;;;;;;3.34;100.00;98690.84;15266945;19;20017;-49
2023/11/21 15:46:41;;;;;;;16.27;12.10;;;;;;;3.32;100.00;98714.06;15279587;19;20018;-52
2023/11/21 15:52:09;;;;;;;17.02;11.07;;;;;;;3.27;100.00;98721.50;15278157;19;20022;-51
2023/11/21 15:57:33;;;;;;;16.15;10.13;;;;;;;3.26;100.00;98722.47;15276880;19;20042;-51
2023/11/21 16:03:01;;;;;;;13.00;9.77;;;;;;;3.22;100.00;98731.66;15277007;19;20940;-53
2023/11/21 16:08:25;;;;;;;12.88;8.80;;;;;;;3.19;100.00;98740.69;15274783;19;20103;-53
2023/11/21 16:13:50;;;;;;;10.80;8.07;;;;;;;3.17;100.00;98739.09;15276395;19;20033;-51
2023/11/21 16:19:17;;;;;;;13.18;7.75;;;;;;;3.15;100.00;98756.97;15272642;19;20021;-54
2023/11/21 16:24:42;;;;;;;9.98;7.53;;;;;;;3.11;100.00;98750.19;15272777;19;20013;-53
2023/11/21 16:30:08;;;;;;;9.52;7.35;;;;;;;3.11;100.00;98766.16;15270584;19;20034;-54
2023/11/21 16:35:39;;;;;;;8.95;7.00;;;;;;;3.10;100.00;98769.78;15269950;19;20017;-54
2023/11/21 16:41:05;;;;;;;10.85;7.82;;;;;;;3.10;100.00;98781.25;15265930;19;20763;-50
2023/11/21 16:46:30;;;;;;;7.45;6.28;;;;;;;3.08;100.00;98786.69;15273355;19;20025;-50
2023/11/21 16:51:57;;;;;;;8.52;6.90;;;;;;;3.02;100.00;98784.44;15273311;19;20020;-51
2023/11/21 16:57:22;;;;;;;11.35;7.50;;;;;;;3.01;100.00;98788.03;15267449;19;20018;-51
2023/11/21 17:02:48;;;;;;;12.57;8.30;;;;;;;3.00;100.00;98802.31;15271090;19;20236;-51
2023/11/21 17:08:16;;;;;;;11.73;9.32;;;;;;;2.97;100.00;98801.69;15271934;19;20007;-54
2023/11/21 17:13:41;;;;;;;11.48;9.77;;;;;;;2.91;100.00;98810.91;15267697;19;20017;-51
2023/11/21 17:19:07;;;;;;;14.40;11.13;;;;;;;2.91;100.00;98813.59;15267645;19;20094;-55
2023/11/21 17:24:36;;;;;;;12.90;9.65;;;;;;;2.90;100.00;98826.06;15272307;19;20021;-50
2023/11/21 17:30:01;;;;;;;9.40;7.53;;;;;;;2.83;100.00;98822.06;15269850;19;20098;-52
2023/11/21 17:35:26;;;;;;;9.07;7.20;;;;;;;2.81;100.00;98839.09;15272151;19;20031;-50
2023/11/21 17:40:54;;;;;;;7.93;7.13;;;;;;;2.75;100.00;98835.91;15268608;19;20014;-52
2023/11/21 17:46:18;;;;;;;7.68;6.88;;;;;;;2.76;100.00;98852.72;15262870;19;20018;-54
2023/11/21 17:51:44;;;;;;;6.68;5.97;;;;;;;2.68;100.00;98844.41;15268166;19;20018;-53
2023/11/21 17:57:11;;;;;;;6.07;5.32;;;;;;;2.58;100.00;98854.78;15299779;19;20015;-54
2023/11/21 18:02:37;;;;;;;6.22;5.15;;;;;;;2.53;100.00;98862.22;15287524;19;20027;-55
2023/11/21 18:08:02;;;;;;;5.28;4.63;;;;;;;2.49;100.00;98866.03;15273532;19;20426;-53
2023/11/21 18:13:30;;;;;;;5.88;5.05;;;;;;;2.44;100.00;98883.13;15266014;19;20430;-49
2023/11/21 18:18:55;;;;;;;5.43;4.93;;;;;;;2.41;100.00;98879.81;15258084;19;20018;-54
2023/11/21 18:24:19;;;;;;;7.50;5.00;;;;;;;2.39;100.00;98882.56;15269750;19;20014;-51
2023/11/21 18:29:46;;;;;;;4.82;4.32;;;;;;;2.38;100.00;98891.50;15267319;19;20077;-52
2023/11/21 18:35:11;;;;;;;4.65;4.20;;;;;;;2.36;100.00;98900.50;15265963;19;20010;-50
2023/11/21 18:40:36;;;;;;;4.75;4.35;;;;;;;2.33;100.00;98914.84;15263687;19;20018;-53
2023/11/21 18:46:05;;;;;;;4.18;3.78;;;;;;;2.26;100.00;98913.53;15268245;19;20085;-53
2023/11/21 18:51:30;;;;;;;4.40;4.00;;;;;;;2.17;100.00;98909.66;15249125;19;20367;-53
2023/11/21 18:56:54;;;;;;;4.90;4.40;;;;;;;2.12;100.00;98907.28;15236930;19;20034;-54
2023/11/21 19:02:21;;;;;;;5.65;4.10;;;;;;;2.06;100.00;98912.13;15249419;19;21022;-51
2023/11/21 19:07:46;;;;;;;4.45;3.92;;;;;;;2.02;100.00;98931.84;15257584;19;20017;-54
2023/11/21 19:13:11;;;;;;;3.60;3.30;;;;;;;1.96;100.00;98927.78;15260382;19;20015;-53
2023/11/21 19:18:38;;;;;;;2.97;2.67;;;;;;;1.88;100.00;98930.94;15262393;19;20818;-52
2023/11/21 19:24:04;;;;;;;3.13;2.72;;;;;;;1.81;100.00;98945.50;15257132;19;20021;-52
2023/11/21 19:29:28;;;;;;;2.72;2.53;;;;;;;1.74;100.00;98955.66;15257100;19;20029;-50
2023/11/21 19:34:51;;;;;;;2.92;2.60;;;;;;;1.65;100.00;98950.91;15261164;19;20014;-54
2023/11/21 19:40:22;;;;;;;2.50;2.30;;;;;;;1.61;100.00;98955.53;15256421;19;20026;-51
2023/11/21 19:45:48;;;;;;;2.55;2.35;;;;;;;1.57;100.00;98958.47;15264338;19;20028;-51
2023/11/21 19:51:16;;;;;;;2.65;2.45;;;;;;;1.53;100.00;98955.13;15261885;19;20014;-53
2023/11/21 19:56:41;;;;;;;2.60;2.40;;;;;;;1.51;100.00;98957.03;15265293;19;20424;-50
2023/11/21 20:02:06;;;;;;;3.40;2.75;;;;;;;1.49;100.00;98962.41;15261019;19;20022;-53
2023/11/21 20:07:33;;;;;;;2.85;2.40;;;;;;;1.46;100.00;98967.06;15268557;19;20491;-48
2023/11/21 20:12:58;;;;;;;6.07;2.63;;;;;;;1.86;100.00;98972.69;15274068;19;20014;-47
2023/11/21 20:18:25;;;;;;;2.50;2.30;;;;;;;2.09;100.00;98976.56;15267332;19;20083;-49
2023/11/21 20:23:53;;;;;;;2.53;2.30;;;;;;;2.25;100.00;98976.47;15271832;19;20020;-47
2023/11/21 20:29:19;;;;;;;2.30;2.10;;;;;;;2.33;100.00;98973.34;15259919;19;20032;-48
2023/11/21 20:34:43;;;;;;;2.55;2.35;;;;;;;2.41;100.00;98963.09;15273763;19;20623;-48
2023/11/21 20:40:12;;;;;;;3.55;2.80;;;;;;;2.42;100.00;98945.34;15270278;19;20018;-49
2023/11/21 20:45:36;;;;;;;2.60;2.40;;;;;;;2.47;100.00;98944.09;15274232;19;20479;-50
2023/11/21 20:51:01;;;;;;;3.72;2.53;;;;;;;2.44;100.00;98943.44;15267971;19;20023;-46
2023/11/21 20:56:29;;;;;;;3.15;2.88;;;;;;;2.50;100.00;98948.34;15276012;19;20026;-46
2023/11/21 21:01:56;;;;;;;3.40;3.10;;;;;;;2.44;100.00;98949.59;15261143;19;20038;-51
2023/11/21 21:07:22;;;;;;;4.57;3.10;;;;;;;2.70;100.00;98968.38;15270608;19;20018;-48
2023/11/21 21:12:49;;;;;;;4.15;3.30;;;;;;;3.00;100.00;98982.47;15273450;19;20772;-48
2023/11/21 21:18:15;;;;;;;3.53;2.88;;;;;;;2.99;100.00;98975.44;15270752;19;20010;-48
2023/11/21 21:23:39;;;;;;;2.85;2.55;;;;;;;2.97;100.00;98975.56;15267903;19;20348;-47
2023/11/21 21:29:08;;;;;;;3.30;3.00;;;;;;;3.00;100.00;98971.81;15267618;19;20496;-53
2023/11/21 21:34:34;;;;;;;3.17;2.88;;;;;;;2.74;100.00;98975.22;15262710;19;20081;-51
2023/11/21 21:40:08;;;;;;;3.20;2.90;;;;;;;2.56;100.00;98973.72;15269495;19;20061;-52
2023/11/21 21:45:36;;;;;;;3.10;2.80;;;;;;;2.34;100.00;98991.03;15268974;19;20090;-53
2023/11/21 21:51:01;;;;;;;3.58;2.83;;;;;;;2.15;100.00;98994.81;15266400;19;20024;-54
2023/11/21 21:56:26;;;;;;;3.85;3.45;;;;;;;2.05;100.00;99006.09;15270663;19;20093;-48
2023/11/21 22:01:58;;;;;;;4.60;3.30;;;;;;;1.98;100.00;99022.44;15260282;19;20020;-50
2023/11/21 22:07:22;;;;;;;4.55;3.10;;;;;;;1.89;100.00;99016.78;15266293;19;20021;-51
2023/11/21 22:12:47;;;;;;;3.92;3.17;;;;;;;1.76;100.00;99012.22;15269190;19;20007;-48
2023/11/21 22:18:14;;;;;;;4.72;3.72;;;;;;;1.67;100.00;99002.13;15267032;19;20019;-51
2023/11/21 22:23:39;;;;;;;4.15;3.75;;;;;;;1.75;100.00;99021.13;15265426;19;20015;-52
2023/11/21 22:29:04;;;;;;;6.63;4.32;;;;;;;1.74;100.00;99022.06;15264044;19;20010;-52
2023/11/21 22:34:32;;;;;;;5.80;5.05;;;;;;;1.74;100.00;99023.88;15267837;19;20371;-50
2023/11/21 22:40:05;;;;;;;5.15;4.65;;;;;;;1.75;100.00;99029.09;15258919;19;20021;-51
2023/11/21 22:45:31;;;;;;;5.57;4.60;;;;;;;1.75;100.00;99047.69;15266612;19;20033;-51
2023/11/21 22:50:59;;;;;;;5.25;4.65;;;;;;;1.77;100.00;99051.13;15275500;19;20021;-50
2023/11/21 22:56:24;;;;;;;5.63;4.78;;;;;;;1.73;100.00;99057.53;15283731;19;20031;-51
2023/11/21 23:01:49;;;;;;;6.30;5.03;;;;;;;1.69;100.00;99064.84;15280854;19;20010;-48
2023/11/21 23:07:18;;;;;;;8.15;6.50;;;;;;;1.74;100.00;99077.84;15282764;19;20356;-53
2023/11/21 23:12:43;;;;;;;7.28;6.40;;;;;;;1.64;100.00;99066.06;15276956;19;20094;-50
2023/11/21 23:18:08;;;;;;;8.10;7.30;;;;;;;1.63;100.00;99080.28;15278745;19;20032;-50
2023/11/21 23:23:36;;;;;;;10.20;8.43;;;;;;;1.68;100.00;99084.38;15275408;19;20022;-52
2023/11/21 23:29:02;;;;;;;10.50;8.75;;;;;;;1.74;100.00;99091.13;15273252;19;20023;-50
2023/11/21 23:34:27;;;;;;;10.48;9.38;;;;;;;1.74;100.00;99096.44;15008223;19;5000733;-49
2023/11/21 23:39:54;;;;;;;9.80;8.80;;;;;;;1.69;100.00;99096.72;15273833;19;20304;-48
2023/11/21 23:45:19;;;;;;;10.23;8.82;;;;;;;1.69;100.00;99090.56;15274235;19;20027;-51
2023/11/21 23:50:44;;;;;;;10.65;8.43;;;;;;;1.61;100.00;99106.06;15270911;19;20486;-51
2023/11/21 23:56:06;;;;;;;12.20;9.85;;;;;;;1.56;100.00;99111.63;15279003;19;20021;-52
